COOK1: Arkansas River Nr Coolidge, KS

                                SHEF ID:       COOK1     ARKANSAS R NR COOLIDGE, KS
STATION TYPE:
Regulating: Stage = 8.00, Flow = 2041

PRECIP STAGE STAGE(2) RIV-FLOW WTR-TEMP CONDUCT BAT-LOAD
in ft ft cfs F umho/cm volt
Ccp-Rev Ccp-Rev Ccp-Rev Ccp-Rev Ccp-Rev Ccp-Rev Ccp-Rev
(America/Chicago)
08/16 00:00 0.00 3.18 3.17 122 78.24 5890 12.95
08/16 01:00 0.00 3.17 3.15 121 77.16 5882 12.95
08/16 02:00 0.00 3.15 3.16 118 75.97 5875 12.89
08/16 03:00 0.00 3.16 3.16 120 74.86 5873 12.89
08/16 04:00 0.00 3.16 3.16 120 73.81 5875 12.89
08/16 05:00 0.00 3.15 3.15 118 72.75 5881 12.89
08/16 06:00 0.00 3.14 3.14 117 71.74 5906 12.83
08/16 07:00 0.00 3.13 3.15 116 70.74 5900 12.83
08/16 08:00 0.00 3.12 3.14 115 70.00 5893 12.83
08/16 09:00 0.00 3.12 3.13 115 69.75 5899 12.89
08/16 10:00 0.00 3.13 3.13 116 70.27 5911 12.65
08/16 11:00 0.00 3.13 3.11 116 71.55 5936 13.71
08/16 12:00 0.00 3.11 3.12 113 73.42 5956 13.77
08/16 13:00 0.00 2.86 2.87 84 76.10 5978 13.83
08/16 14:00 0.00 2.84 2.82 81 78.94 6035 13.83
08/16 15:00 0.00 2.82 2.83 79 81.03 6030 13.83
08/16 16:00 0.00 2.82 2.82 79 82.67 6026 13.71
08/16 17:00 0.00 2.81 2.70 78 83.64 6028 13.48
08/16 18:00 0.00 2.79 2.82 76 83.88 6026 13.30
08/16 19:00 0.00 2.78 2.75 75 83.25 6017 13.18
08/16 20:00 0.00 2.78 2.76 75 81.81 6014 13.18
08/16 21:00 0.00 2.77 2.77 74 80.28 6012 13.00
08/16 22:00 0.00 2.77 2.78 74 79.03 6010 13.00
08/16 23:00 ---- ---- ---- ---- ---- ---- ----
Data processed at Sat 17Aug2024 04:30 GMT

Parsing this webpage?

Checkout our new Data API! CWMSDataAPI (CDA)

Timeseries IDs (TSIDs)

TSIDs used from left to right in the data table
COOL.Precip-Inc.Total.1Hour.1Hour.Ccp-Rev
COOL.Stage.Inst.1Hour.0.Ccp-Rev
COOL.Stage-Alt.Inst.1Hour.0.Ccp-Rev
COOL.Flow.Inst.1Hour.0.Ccp-Rev
COOL.Temp-Water.Inst.1Hour.0.Ccp-Rev
COOL.Cond.Inst.1Hour.0.Ccp-Rev
COOL.Volt-Battery Load.Inst.1Hour.0.Ccp-Rev

                            

All information presented herein is the property of the government of the United States of America and may be revised or deleted at any time without prior notice. Dissemination of this information without the expressed written consent of the Public Affairs Office, Tulsa District U.S. Army Corps of Engineers is strictly prohibited. These data are gathered electronically and, as presented, have NOT undergone any form of quality control. These data are NOT guaranteed to be valid or correct.